createdAt,value
2022-10-12T00:01:41.997Z,12.98
2022-10-12T00:04:09.769Z,13.05
2022-10-12T00:06:37.098Z,12.89
2022-10-12T00:09:04.521Z,12.97
2022-10-12T00:11:31.872Z,12.95
2022-10-12T00:14:00.150Z,12.89
2022-10-12T00:16:31.430Z,12.88
2022-10-12T00:18:59.418Z,12.75
2022-10-12T00:21:28.209Z,12.75
2022-10-12T00:24:00.284Z,12.76
2022-10-12T00:26:28.316Z,12.82
2022-10-12T00:29:00.916Z,12.81
2022-10-12T00:31:29.617Z,12.78
2022-10-12T00:34:00.390Z,12.75
2022-10-12T00:36:32.506Z,12.67
2022-10-12T00:39:00.099Z,12.54
2022-10-12T00:41:32.384Z,12.60
2022-10-12T00:44:00.199Z,12.38
2022-10-12T00:46:37.480Z,12.24
2022-10-12T00:49:10.929Z,12.23
2022-10-12T00:51:40.059Z,12.20
2022-10-12T00:54:10.336Z,11.99
2022-10-12T00:56:40.255Z,12.12
2022-10-12T00:59:11.668Z,12.21
2022-10-12T01:01:39.605Z,12.21
2022-10-12T01:04:07.386Z,12.24
2022-10-12T01:06:35.165Z,12.17
2022-10-12T01:09:03.643Z,11.87
2022-10-12T01:11:31.010Z,11.72
2022-10-12T01:13:58.740Z,11.66
2022-10-12T01:17:07.744Z,11.68
2022-10-12T01:19:57.121Z,11.59
2022-10-12T01:22:24.676Z,11.45
2022-10-12T01:24:53.503Z,11.14
2022-10-12T01:27:45.560Z,11.00
2022-10-12T01:30:19.040Z,11.00
2022-10-12T01:33:27.662Z,10.94
2022-10-12T01:36:03.550Z,10.91
2022-10-12T01:38:56.785Z,10.88
2022-10-12T01:41:27.448Z,10.81
2022-10-12T01:43:54.825Z,10.86
2022-10-12T01:46:24.828Z,10.74
2022-10-12T01:48:58.444Z,10.67
2022-10-12T01:51:37.586Z,10.87
2022-10-12T01:54:30.044Z,10.89
2022-10-12T01:57:14.106Z,10.86
2022-10-12T02:00:13.514Z,10.98
2022-10-12T02:02:59.659Z,11.02
2022-10-12T02:05:47.717Z,10.93
2022-10-12T02:08:32.965Z,11.04
2022-10-12T02:11:10.408Z,11.12
2022-10-12T02:13:51.626Z,10.94
2022-10-12T02:16:22.353Z,10.90
2022-10-12T02:18:52.148Z,10.97
2022-10-12T02:21:26.106Z,10.91
2022-10-12T02:23:54.889Z,11.00
2022-10-12T02:26:22.630Z,11.05
2022-10-12T02:28:51.050Z,11.00
2022-10-12T02:31:21.199Z,10.93
2022-10-12T02:33:56.676Z,10.42
2022-10-12T02:36:35.028Z,10.09
2022-10-12T02:39:08.172Z,10.27
2022-10-12T02:41:40.574Z,10.39
2022-10-12T02:44:11.820Z,10.14
2022-10-12T02:46:40.734Z,9.99
2022-10-12T02:49:09.080Z,10.16
2022-10-12T02:51:36.910Z,10.28
2022-10-12T02:54:04.463Z,10.33
2022-10-12T02:56:31.782Z,10.28
2022-10-12T02:58:59.144Z,10.25
2022-10-12T03:01:26.520Z,10.20
2022-10-12T03:03:53.900Z,9.96
2022-10-12T03:06:21.510Z,9.71
2022-10-12T03:08:48.838Z,9.60
2022-10-12T03:11:16.171Z,9.46
2022-10-12T03:13:43.496Z,9.38
2022-10-12T03:16:11.701Z,9.38
2022-10-12T03:18:39.466Z,9.39
2022-10-12T03:21:06.906Z,9.45
2022-10-12T03:23:34.236Z,9.82
2022-10-12T03:26:01.566Z,10.06
2022-10-12T03:28:28.996Z,10.03
2022-10-12T03:30:57.089Z,10.33
2022-10-12T03:33:24.754Z,10.50
2022-10-12T03:35:52.163Z,10.29
2022-10-12T03:38:20.263Z,10.31
2022-10-12T03:40:47.992Z,10.63
2022-10-12T03:43:15.440Z,10.77
2022-10-12T03:45:42.745Z,10.71
2022-10-12T03:48:10.178Z,10.46
2022-10-12T03:50:37.477Z,9.96
2022-10-12T03:53:05.818Z,9.72
2022-10-12T03:55:33.817Z,9.68
2022-10-12T03:58:01.149Z,9.82
2022-10-12T04:00:29.800Z,9.62
2022-10-12T04:02:57.151Z,9.59
2022-10-12T04:05:24.640Z,9.57
2022-10-12T04:07:52.174Z,9.51
2022-10-12T04:10:19.541Z,9.53
2022-10-12T04:12:47.351Z,9.55
2022-10-12T04:15:14.872Z,9.59
2022-10-12T04:17:42.859Z,9.70
2022-10-12T04:20:11.365Z,9.86
2022-10-12T04:22:39.344Z,9.92
2022-10-12T04:25:07.111Z,10.21
2022-10-12T04:27:34.430Z,10.38
2022-10-12T04:30:01.777Z,10.38
2022-10-12T04:32:29.076Z,10.33
2022-10-12T04:34:56.394Z,10.62
2022-10-12T04:37:23.782Z,10.55
2022-10-12T04:39:51.101Z,10.50
2022-10-12T04:42:18.421Z,10.53
2022-10-12T04:44:45.701Z,10.45
2022-10-12T04:47:13.398Z,10.57
2022-10-12T04:49:40.738Z,10.39
2022-10-12T04:52:08.096Z,10.39
2022-10-12T04:54:35.390Z,10.55
2022-10-12T04:57:02.652Z,10.43
2022-10-12T04:59:29.962Z,10.44
2022-10-12T05:01:57.294Z,10.48
2022-10-12T05:04:24.758Z,10.45
2022-10-12T05:06:52.206Z,10.36
2022-10-12T05:09:19.543Z,10.48
2022-10-12T05:11:46.897Z,10.38
2022-10-12T05:14:14.266Z,10.45
2022-10-12T05:16:41.581Z,10.44
2022-10-12T05:19:09.020Z,10.39
2022-10-12T05:21:36.417Z,10.53
2022-10-12T05:24:03.845Z,10.76
2022-10-12T05:26:31.196Z,10.68
2022-10-12T05:28:58.504Z,10.80
2022-10-12T05:31:25.844Z,10.64
2022-10-12T05:33:53.161Z,10.58
2022-10-12T05:36:20.515Z,10.67
2022-10-12T05:38:48.847Z,10.69
2022-10-12T05:41:16.254Z,10.58
2022-10-12T05:43:43.584Z,10.44
2022-10-12T05:46:14.252Z,10.52
2022-10-12T05:48:41.987Z,10.68
2022-10-12T05:51:09.266Z,10.76
2022-10-12T05:53:37.798Z,10.84
2022-10-12T05:56:05.443Z,10.89
2022-10-12T05:58:32.828Z,10.87
2022-10-12T06:01:11.075Z,10.74
2022-10-12T06:03:38.390Z,10.92
2022-10-12T06:06:06.909Z,10.79
2022-10-12T06:08:34.855Z,10.79
2022-10-12T06:11:02.220Z,10.60
2022-10-12T06:13:29.531Z,10.50
2022-10-12T06:15:56.936Z,10.69
2022-10-12T06:18:24.294Z,10.86
2022-10-12T06:21:08.729Z,10.93
2022-10-12T06:23:40.468Z,10.96
2022-10-12T06:26:07.832Z,11.04
2022-10-12T06:28:35.265Z,11.17
2022-10-12T06:31:02.629Z,11.52
2022-10-12T06:33:30.174Z,11.60
2022-10-12T06:35:58.298Z,11.53
2022-10-12T06:38:25.769Z,11.31
2022-10-12T06:40:53.653Z,11.47
2022-10-12T06:43:22.740Z,11.14
2022-10-12T06:45:50.236Z,11.33
2022-10-12T06:48:18.772Z,11.40
2022-10-12T06:50:47.592Z,11.35
2022-10-12T06:53:14.972Z,11.66
2022-10-12T06:55:42.400Z,11.89
2022-10-12T06:58:09.741Z,12.08
2022-10-12T07:00:37.909Z,12.31
2022-10-12T07:03:05.377Z,12.47
2022-10-12T07:05:32.754Z,12.61
2022-10-12T07:08:00.096Z,12.67
2022-10-12T07:10:28.170Z,12.44
2022-10-12T07:12:55.440Z,12.51
2022-10-12T07:15:22.876Z,12.17
2022-10-12T07:17:50.495Z,12.26
2022-10-12T07:20:17.918Z,12.42
2022-10-12T07:22:45.316Z,12.47
2022-10-12T07:25:12.871Z,12.67
2022-10-12T07:27:40.811Z,12.77
2022-10-12T07:30:09.124Z,12.96
2022-10-12T07:32:36.423Z,13.32
2022-10-12T07:35:03.972Z,13.55
2022-10-12T07:37:31.292Z,13.80
2022-10-12T07:39:58.589Z,14.04
2022-10-12T07:42:26.289Z,14.11
2022-10-12T07:44:53.637Z,14.01
2022-10-12T07:47:21.000Z,14.11
2022-10-12T07:49:48.354Z,14.51
2022-10-12T07:52:15.690Z,14.89
2022-10-12T07:54:43.379Z,15.58
2022-10-12T07:57:10.734Z,16.59
2022-10-12T07:59:39.224Z,17.82
2022-10-12T08:02:06.552Z,18.47
2022-10-12T08:04:33.989Z,18.77
2022-10-12T08:07:01.267Z,18.34
2022-10-12T08:09:28.699Z,18.89
2022-10-12T08:11:56.463Z,18.81
2022-10-12T08:14:23.781Z,18.73
2022-10-12T08:16:51.094Z,18.43
2022-10-12T08:19:18.429Z,18.38
2022-10-12T08:21:45.938Z,18.37
2022-10-12T08:24:13.661Z,18.37
2022-10-12T08:26:41.105Z,18.40
2022-10-12T08:29:09.781Z,18.48
2022-10-12T08:31:37.437Z,18.34
2022-10-12T08:34:06.037Z,17.91
2022-10-12T08:36:33.576Z,17.18
2022-10-12T08:39:01.207Z,16.35
2022-10-12T08:41:52.015Z,16.45
2022-10-12T08:44:37.791Z,16.16
2022-10-12T08:47:31.966Z,16.30
2022-10-12T08:50:00.597Z,17.23
2022-10-12T08:52:34.929Z,16.95
2022-10-12T08:55:26.726Z,16.48
2022-10-12T08:57:54.052Z,16.81
2022-10-12T09:00:21.430Z,17.65
2022-10-12T09:03:02.064Z,17.11
2022-10-12T09:05:40.532Z,17.47
2022-10-12T09:08:14.286Z,18.29
2022-10-12T09:10:47.548Z,18.76
2022-10-12T09:13:53.201Z,19.34
2022-10-12T09:16:25.155Z,18.80
2022-10-12T09:18:57.631Z,19.25
2022-10-12T09:21:26.746Z,17.92
2022-10-12T09:23:56.680Z,18.17
2022-10-12T09:26:35.626Z,18.47
2022-10-12T09:29:12.420Z,19.30
2022-10-12T09:31:52.698Z,19.96
2022-10-12T09:34:20.629Z,20.63
2022-10-12T09:36:47.973Z,21.32
2022-10-12T09:39:23.409Z,20.90
2022-10-12T09:41:52.978Z,20.70
2022-10-12T09:44:34.179Z,19.31
2022-10-12T09:47:04.421Z,17.92
2022-10-12T09:49:50.229Z,18.00
2022-10-12T09:52:30.561Z,17.70
2022-10-12T09:55:05.154Z,20.17
2022-10-12T09:57:44.770Z,19.40
2022-10-12T10:00:35.858Z,17.89
2022-10-12T10:03:03.938Z,17.33
2022-10-12T10:05:36.846Z,17.21
2022-10-12T10:08:23.419Z,16.36
2022-10-12T10:10:53.495Z,16.33
2022-10-12T10:13:22.999Z,16.20
2022-10-12T10:16:03.955Z,16.34
2022-10-12T10:18:38.983Z,16.50
2022-10-12T10:21:09.388Z,16.57
2022-10-12T10:23:55.594Z,16.80
2022-10-12T10:26:24.077Z,16.47
2022-10-12T10:28:57.468Z,15.78
2022-10-12T10:31:29.113Z,16.12
2022-10-12T10:34:12.606Z,16.28
2022-10-12T10:36:52.242Z,16.10
2022-10-12T10:39:32.870Z,15.94
2022-10-12T10:42:20.364Z,15.81
2022-10-12T10:44:51.000Z,15.64
2022-10-12T10:47:18.764Z,15.63
2022-10-12T10:49:50.230Z,15.63
2022-10-12T10:52:24.429Z,15.65
2022-10-12T10:55:18.694Z,15.68
2022-10-12T10:58:05.684Z,15.73
2022-10-12T11:00:40.161Z,15.74
2022-10-12T11:03:23.225Z,15.63
2022-10-12T11:05:58.219Z,15.58
2022-10-12T11:08:27.432Z,15.56
2022-10-12T11:11:11.030Z,15.61
2022-10-12T11:14:15.891Z,15.62
2022-10-12T11:16:52.830Z,15.60
2022-10-12T11:19:30.822Z,15.44
2022-10-12T11:22:03.940Z,15.43
2022-10-12T11:24:40.192Z,15.51
2022-10-12T11:27:32.524Z,15.35
2022-10-12T11:30:09.352Z,15.44
2022-10-12T11:32:46.093Z,15.45
2022-10-12T11:35:37.585Z,15.48
2022-10-12T11:38:17.456Z,15.46
2022-10-12T11:44:18.486Z,15.90
2022-10-12T11:46:59.411Z,16.08
2022-10-12T11:49:31.484Z,16.30
2022-10-12T11:52:03.586Z,16.38
2022-10-12T11:54:44.612Z,16.57
2022-10-12T11:57:25.325Z,16.30
2022-10-12T11:59:59.191Z,16.41
2022-10-12T12:02:30.172Z,16.20
2022-10-12T12:04:58.885Z,15.90
2022-10-12T12:07:41.945Z,16.17
2022-10-12T12:10:37.107Z,16.47
2022-10-12T12:13:19.170Z,15.90
2022-10-12T12:15:52.418Z,15.96
2022-10-12T12:18:21.003Z,16.39
2022-10-12T12:20:48.258Z,16.90
2022-10-12T12:23:32.077Z,17.27
2022-10-12T12:26:05.337Z,16.66
2022-10-12T12:28:33.500Z,16.73
2022-10-12T12:31:03.275Z,17.10
2022-10-12T12:33:36.122Z,17.29
2022-10-12T12:36:06.435Z,17.47
2022-10-12T12:38:44.681Z,16.94
2022-10-12T12:41:23.739Z,17.22
2022-10-12T12:44:01.961Z,16.65
2022-10-12T12:46:52.291Z,17.72
2022-10-12T12:49:41.552Z,18.16
2022-10-12T12:52:22.476Z,18.45
2022-10-12T12:55:01.587Z,18.81
2022-10-12T12:57:58.395Z,18.93
2022-10-12T13:00:32.446Z,18.98
2022-10-12T13:03:23.761Z,18.63
2022-10-12T13:06:17.684Z,18.46
2022-10-12T13:09:01.239Z,18.21
2022-10-12T13:12:06.594Z,18.02
2022-10-12T13:14:40.827Z,18.00
2022-10-12T13:17:34.895Z,18.12
2022-10-12T13:20:23.180Z,18.08
2022-10-12T13:22:51.870Z,18.01
2022-10-12T13:25:29.097Z,16.80
2022-10-12T13:27:56.688Z,16.61
2022-10-12T13:30:49.262Z,16.71
2022-10-12T13:33:32.361Z,16.45
2022-10-12T13:36:06.038Z,16.39
2022-10-12T13:38:38.486Z,16.73
2022-10-12T13:41:14.797Z,16.69
2022-10-12T13:44:05.587Z,17.08
2022-10-12T13:46:39.782Z,17.25
2022-10-12T13:49:17.629Z,17.43
2022-10-12T13:51:47.372Z,16.83
2022-10-12T13:54:23.730Z,16.81
2022-10-12T13:57:02.458Z,16.67
2022-10-12T13:59:35.759Z,16.60
2022-10-12T14:02:03.718Z,16.74
2022-10-12T14:04:33.673Z,16.85
2022-10-12T14:07:05.953Z,16.67
2022-10-12T14:09:47.217Z,16.67
2022-10-12T14:12:14.918Z,16.88
2022-10-12T14:14:44.773Z,16.58
2022-10-12T14:17:16.791Z,16.66
2022-10-12T14:19:47.899Z,16.62
2022-10-12T14:22:30.414Z,16.57
2022-10-12T14:25:19.881Z,16.35
2022-10-12T14:27:47.438Z,16.32
2022-10-12T14:30:21.302Z,16.20
2022-10-12T14:32:49.736Z,16.11
2022-10-12T14:35:25.607Z,16.10
2022-10-12T14:37:54.911Z,16.11
2022-10-12T14:40:30.171Z,16.17
2022-10-12T14:43:07.861Z,16.24
2022-10-12T14:45:35.270Z,16.33
2022-10-12T14:48:02.976Z,16.18
2022-10-12T14:50:31.714Z,16.16
2022-10-12T14:53:05.018Z,16.16
2022-10-12T14:55:33.793Z,16.11
2022-10-12T14:58:01.215Z,16.17
2022-10-12T15:00:31.289Z,16.12
2022-10-12T15:02:58.912Z,16.16
2022-10-12T15:05:31.935Z,16.11
2022-10-12T15:08:00.295Z,16.08
2022-10-12T15:10:29.845Z,16.05
2022-10-12T15:12:57.148Z,16.10
2022-10-12T15:15:42.219Z,16.19
2022-10-12T15:18:09.633Z,16.40
2022-10-12T15:20:37.511Z,16.62
2022-10-12T15:23:05.376Z,16.99
2022-10-12T15:25:40.161Z,17.20
2022-10-12T15:28:07.486Z,17.33
2022-10-12T15:30:36.053Z,17.51
2022-10-12T15:33:07.619Z,17.21
2022-10-12T15:35:35.957Z,16.81
2022-10-12T15:38:03.594Z,16.66
2022-10-12T15:40:32.233Z,16.64
2022-10-12T15:42:59.788Z,16.69
2022-10-12T15:45:31.838Z,16.54
2022-10-12T15:47:59.567Z,16.29
2022-10-12T15:50:29.323Z,16.33
2022-10-12T15:52:57.140Z,16.11
2022-10-12T15:55:26.848Z,15.97
2022-10-12T15:57:54.692Z,15.84
2022-10-12T16:00:26.028Z,15.91
2022-10-12T16:02:54.959Z,15.76
2022-10-12T16:05:28.301Z,15.77
2022-10-12T16:07:55.955Z,15.67
2022-10-12T16:10:31.955Z,15.67
2022-10-12T16:12:59.529Z,15.47
2022-10-12T16:15:31.399Z,15.61
2022-10-12T16:18:00.336Z,15.35
2022-10-12T16:20:29.130Z,15.42
2022-10-12T16:22:56.785Z,15.21
2022-10-12T16:25:25.058Z,15.10
2022-10-12T16:27:53.534Z,14.93
2022-10-12T16:30:21.907Z,14.82
2022-10-12T16:32:49.576Z,14.74
2022-10-12T16:35:17.234Z,14.66
2022-10-12T16:37:44.691Z,14.53
2022-10-12T16:40:12.644Z,14.49
2022-10-12T16:42:39.960Z,14.48
2022-10-12T16:45:07.933Z,14.33
2022-10-12T16:47:38.944Z,14.51
2022-10-12T16:50:10.506Z,14.25
2022-10-12T16:52:37.944Z,14.15
2022-10-12T16:55:06.071Z,14.08
2022-10-12T16:57:33.405Z,14.05
2022-10-12T17:00:01.038Z,13.99
2022-10-12T17:02:28.383Z,13.87
2022-10-12T17:04:55.731Z,13.67
2022-10-12T17:07:23.245Z,13.93
2022-10-12T17:09:50.840Z,13.85
2022-10-12T17:12:18.572Z,13.59
2022-10-12T17:14:46.302Z,13.54
2022-10-12T17:17:13.569Z,13.48
2022-10-12T17:19:41.197Z,13.34
2022-10-12T17:22:09.965Z,13.18
2022-10-12T17:24:39.075Z,13.16
2022-10-12T17:27:08.620Z,13.16
2022-10-12T17:29:42.305Z,13.07
2022-10-12T17:32:10.720Z,12.79
2022-10-12T17:34:43.334Z,12.67
2022-10-12T17:37:13.414Z,12.45
2022-10-12T17:39:44.875Z,12.65
2022-10-12T17:42:13.220Z,12.64
2022-10-12T17:44:40.747Z,12.59
2022-10-12T17:47:08.050Z,12.78
2022-10-12T17:49:35.422Z,12.95
2022-10-12T17:52:02.776Z,13.05
2022-10-12T17:54:30.275Z,12.90
2022-10-12T17:56:57.754Z,12.77
2022-10-12T17:59:26.030Z,12.39
2022-10-12T18:01:53.695Z,12.35
2022-10-12T18:04:21.653Z,12.31
2022-10-12T18:06:48.971Z,12.30
2022-10-12T18:09:16.525Z,12.26
2022-10-12T18:11:44.462Z,12.19
2022-10-12T18:14:13.286Z,12.15
2022-10-12T18:16:40.696Z,12.09
2022-10-12T18:19:10.233Z,12.17
2022-10-12T18:21:37.921Z,12.06
2022-10-12T18:24:09.329Z,11.98
2022-10-12T18:26:39.034Z,11.90
2022-10-12T18:29:06.424Z,11.77
2022-10-12T18:31:33.753Z,11.64
2022-10-12T18:34:03.001Z,11.65
2022-10-12T18:36:30.249Z,11.54
2022-10-12T18:39:01.197Z,11.54
2022-10-12T18:41:28.632Z,11.59
2022-10-12T18:44:00.347Z,11.64
2022-10-12T18:46:29.573Z,11.52
2022-10-12T18:48:57.008Z,11.50
2022-10-12T18:51:32.932Z,11.37
2022-10-12T18:54:01.021Z,11.40
2022-10-12T18:56:29.664Z,11.32
2022-10-12T18:58:57.941Z,11.35
2022-10-12T19:01:26.899Z,11.28
2022-10-12T19:03:55.648Z,11.12
2022-10-12T19:06:25.955Z,11.32
2022-10-12T19:08:55.334Z,11.40
2022-10-12T19:11:23.933Z,11.38
2022-10-12T19:13:59.533Z,11.50
2022-10-12T19:16:27.253Z,11.55
2022-10-12T19:18:59.737Z,11.54
2022-10-12T19:21:27.324Z,11.54
2022-10-12T19:23:55.032Z,11.35
2022-10-12T19:26:25.354Z,11.27
2022-10-12T19:28:55.268Z,11.43
2022-10-12T19:31:37.413Z,11.37
2022-10-12T19:34:10.662Z,11.42
2022-10-12T19:36:38.957Z,11.53
2022-10-12T19:39:13.105Z,11.57
2022-10-12T19:41:40.532Z,11.42
2022-10-12T19:44:08.005Z,11.50
2022-10-12T19:46:35.410Z,11.35
2022-10-12T19:49:02.728Z,11.18
2022-10-12T19:51:31.921Z,11.18
2022-10-12T19:54:04.865Z,11.20
2022-10-12T19:56:32.859Z,11.01
2022-10-12T19:59:00.286Z,11.11
2022-10-12T20:01:29.903Z,11.23
2022-10-12T20:03:57.382Z,11.07
2022-10-12T20:06:27.327Z,10.99
2022-10-12T20:08:56.200Z,10.78
2022-10-12T20:11:24.905Z,10.93
2022-10-12T20:13:52.752Z,10.65
2022-10-12T20:16:21.209Z,10.70
2022-10-12T20:18:49.344Z,11.06
2022-10-12T20:21:19.138Z,11.20
2022-10-12T20:23:46.950Z,10.85
2022-10-12T20:26:17.273Z,10.91
2022-10-12T20:28:44.995Z,10.97
2022-10-12T20:31:13.128Z,10.92
2022-10-12T20:33:41.081Z,11.05
2022-10-12T20:36:13.579Z,11.22
2022-10-12T20:38:41.011Z,11.22
2022-10-12T20:41:10.602Z,11.00
2022-10-12T20:43:40.408Z,11.14
2022-10-12T20:46:10.840Z,11.13
2022-10-12T20:48:40.271Z,11.14
2022-10-12T20:51:09.436Z,11.08
2022-10-12T20:53:37.861Z,10.62
2022-10-12T20:56:06.682Z,10.50
2022-10-12T20:58:34.078Z,10.47
2022-10-12T21:01:13.024Z,10.43
2022-10-12T21:03:41.165Z,10.26
2022-10-12T21:06:13.513Z,10.16
2022-10-12T21:08:40.974Z,10.30
2022-10-12T21:11:09.787Z,10.39
2022-10-12T21:13:40.998Z,10.56
2022-10-12T21:16:09.873Z,10.56
2022-10-12T21:18:38.528Z,10.62
2022-10-12T21:21:12.763Z,10.41
2022-10-12T21:23:44.611Z,10.14
2022-10-12T21:26:16.483Z,9.71
2022-10-12T21:28:44.221Z,9.61
2022-10-12T21:31:12.156Z,9.60
2022-10-12T21:33:40.041Z,9.32
2022-10-12T21:36:12.450Z,9.20
2022-10-12T21:38:40.455Z,9.34
2022-10-12T21:41:09.305Z,9.49
2022-10-12T21:43:37.786Z,9.30
2022-10-12T21:46:10.877Z,9.24
2022-10-12T21:48:38.644Z,9.04
2022-10-12T21:51:07.121Z,9.03
2022-10-12T21:53:35.926Z,9.02
2022-10-12T21:56:23.613Z,8.97
2022-10-12T21:58:52.005Z,9.23
2022-10-12T22:01:22.123Z,9.10
2022-10-12T22:03:56.905Z,8.95
2022-10-12T22:06:25.689Z,9.13
2022-10-12T22:08:55.691Z,9.05
2022-10-12T22:11:23.641Z,8.91
2022-10-12T22:13:51.476Z,8.72
2022-10-12T22:16:19.347Z,8.58
2022-10-12T22:18:46.719Z,8.56
2022-10-12T22:21:16.320Z,8.53
2022-10-12T22:23:44.289Z,8.67
2022-10-12T22:26:15.811Z,8.68
2022-10-12T22:28:53.903Z,8.59
2022-10-12T22:31:22.546Z,9.03
2022-10-12T22:33:50.394Z,9.18
2022-10-12T22:36:17.923Z,9.29
2022-10-12T22:38:45.688Z,9.18
2022-10-12T22:41:21.271Z,9.08
2022-10-12T22:43:49.992Z,8.89
2022-10-12T22:46:18.044Z,8.87
2022-10-12T22:48:45.491Z,8.61
2022-10-12T22:51:16.943Z,8.43
2022-10-12T22:53:44.391Z,8.54
2022-10-12T22:56:17.011Z,8.66
2022-10-12T22:58:45.290Z,8.40
2022-10-12T23:01:14.652Z,8.48
2022-10-12T23:03:42.073Z,8.55
2022-10-12T23:06:15.898Z,8.58
2022-10-12T23:08:43.765Z,8.44
2022-10-12T23:11:22.218Z,8.20
2022-10-12T23:13:50.042Z,7.93
2022-10-12T23:16:20.656Z,7.71
2022-10-12T23:18:48.336Z,7.89
2022-10-12T23:21:17.528Z,7.86
2022-10-12T23:23:45.856Z,7.78
2022-10-12T23:26:17.020Z,7.96
2022-10-12T23:28:44.614Z,8.11
2022-10-12T23:31:21.961Z,8.17
2022-10-12T23:34:03.972Z,8.17
2022-10-12T23:36:31.490Z,8.21
2022-10-12T23:39:03.440Z,8.39
2022-10-12T23:41:30.687Z,8.56
2022-10-12T23:43:58.038Z,8.52
2022-10-12T23:46:25.047Z,8.51
2022-10-12T23:48:53.945Z,8.47
2022-10-12T23:51:20.893Z,8.20
2022-10-12T23:53:47.862Z,8.02
2022-10-12T23:56:14.866Z,8.13
2022-10-12T23:58:41.938Z,8.19
